sensor_id;sensor_type;location;lat;lon;timestamp;pressure;altitude;pressure_sealevel;temperature;humidity
12759;BME280;20944;47.048;15.390;2024-01-27T00:00:09;98385.34;;;3.84;100.00
12759;BME280;20944;47.048;15.390;2024-01-27T00:02:38;98303.81;;;3.55;100.00
12759;BME280;20944;47.048;15.390;2024-01-27T00:05:06;98382.91;;;4.01;100.00
12759;BME280;20944;47.048;15.390;2024-01-27T00:07:36;98370.69;;;3.89;100.00
12759;BME280;20944;47.048;15.390;2024-01-27T00:10:06;98378.56;;;3.98;100.00
12759;BME280;20944;47.048;15.390;2024-01-27T00:12:34;98397.59;;;3.97;100.00
12759;BME280;20944;47.048;15.390;2024-01-27T00:15:03;98362.78;;;3.77;100.00
12759;BME280;20944;47.048;15.390;2024-01-27T00:17:31;98388.72;;;3.78;100.00
12759;BME280;20944;47.048;15.390;2024-01-27T00:20:03;98404.25;;;3.77;100.00
12759;BME280;20944;47.048;15.390;2024-01-27T00:22:32;98373.84;;;3.59;100.00
12759;BME280;20944;47.048;15.390;2024-01-27T00:25:02;98401.50;;;3.63;100.00
12759;BME280;20944;47.048;15.390;2024-01-27T00:27:30;98400.69;;;3.69;100.00
12759;BME280;20944;47.048;15.390;2024-01-27T00:29:59;98418.94;;;3.76;100.00
12759;BME280;20944;47.048;15.390;2024-01-27T00:32:28;98423.22;;;3.71;100.00
12759;BME280;20944;47.048;15.390;2024-01-27T00:34:56;98422.38;;;3.75;100.00
12759;BME280;20944;47.048;15.390;2024-01-27T00:37:24;98419.69;;;3.66;100.00
12759;BME280;20944;47.048;15.390;2024-01-27T00:39:52;98438.75;;;3.71;100.00
12759;BME280;20944;47.048;15.390;2024-01-27T00:42:22;98433.69;;;3.81;99.82
12759;BME280;20944;47.048;15.390;2024-01-27T00:44:51;98437.19;;;3.84;100.00
12759;BME280;20944;47.048;15.390;2024-01-27T00:47:20;98425.84;;;3.76;99.63
12759;BME280;20944;47.048;15.390;2024-01-27T00:49:49;98437.13;;;3.79;100.00
12759;BME280;20944;47.048;15.390;2024-01-27T00:52:17;98447.41;;;3.73;97.07
12759;BME280;20944;47.048;15.390;2024-01-27T00:54:46;98441.44;;;3.79;95.24
12759;BME280;20944;47.048;15.390;2024-01-27T00:57:14;98399.59;;;3.48;95.25
12759;BME280;20944;47.048;15.390;2024-01-27T00:59:44;98442.22;;;3.73;94.92
12759;BME280;20944;47.048;15.390;2024-01-27T01:02:12;98375.50;;;3.56;85.38
12759;BME280;20944;47.048;15.390;2024-01-27T01:04:41;98427.97;;;4.09;77.50
12759;BME280;20944;47.048;15.390;2024-01-27T01:07:09;98437.00;;;4.46;72.29
12759;BME280;20944;47.048;15.390;2024-01-27T01:09:37;98437.28;;;4.81;68.00
12759;BME280;20944;47.048;15.390;2024-01-27T01:12:06;98432.44;;;5.29;63.56
12759;BME280;20944;47.048;15.390;2024-01-27T01:14:34;98431.72;;;5.54;61.21
12759;BME280;20944;47.048;15.390;2024-01-27T01:17:04;98405.91;;;5.95;57.04
12759;BME280;20944;47.048;15.390;2024-01-27T01:19:32;98424.19;;;6.26;57.17
12759;BME280;20944;47.048;15.390;2024-01-27T01:22:01;98412.94;;;6.45;54.69
12759;BME280;20944;47.048;15.390;2024-01-27T01:24:29;98431.19;;;6.71;53.92
12759;BME280;20944;47.048;15.390;2024-01-27T01:26:58;98415.59;;;6.61;53.91
12759;BME280;20944;47.048;15.390;2024-01-27T01:29:26;98427.72;;;6.94;51.97
12759;BME280;20944;47.048;15.390;2024-01-27T01:31:55;98400.81;;;7.01;50.96
12759;BME280;20944;47.048;15.390;2024-01-27T01:34:24;98422.50;;;7.20;50.95
12759;BME280;20944;47.048;15.390;2024-01-27T01:36:53;98358.28;;;6.88;49.18
12759;BME280;20944;47.048;15.390;2024-01-27T01:39:21;98425.91;;;7.45;48.77
12759;BME280;20944;47.048;15.390;2024-01-27T01:41:50;98422.44;;;7.44;49.00
12759;BME280;20944;47.048;15.390;2024-01-27T01:44:18;98404.25;;;7.30;48.63
12759;BME280;20944;47.048;15.390;2024-01-27T01:46:46;98407.66;;;7.40;48.35
12759;BME280;20944;47.048;15.390;2024-01-27T01:49:15;98414.66;;;7.30;48.60
12759;BME280;20944;47.048;15.390;2024-01-27T01:51:45;98428.53;;;7.39;48.65
12759;BME280;20944;47.048;15.390;2024-01-27T01:54:13;98428.53;;;7.49;46.85
12759;BME280;20944;47.048;15.390;2024-01-27T01:56:42;98124.13;;;5.77;46.51
12759;BME280;20944;47.048;15.390;2024-01-27T01:59:10;98419.78;;;7.53;45.33
12759;BME280;20944;47.048;15.390;2024-01-27T02:01:38;98428.47;;;7.69;45.27
12759;BME280;20944;47.048;15.390;2024-01-27T02:04:11;98439.75;;;7.76;45.02
12759;BME280;20944;47.048;15.390;2024-01-27T02:06:39;98426.66;;;7.85;44.69
12759;BME280;20944;47.048;15.390;2024-01-27T02:09:09;98417.16;;;7.64;44.91
12759;BME280;20944;47.048;15.390;2024-01-27T02:11:38;98438.91;;;7.68;44.96
12759;BME280;20944;47.048;15.390;2024-01-27T02:14:06;98439.75;;;7.71;44.51
12759;BME280;20944;47.048;15.390;2024-01-27T02:16:35;98426.72;;;7.67;44.15
12759;BME280;20944;47.048;15.390;2024-01-27T02:19:03;98438.00;;;7.76;44.00
12759;BME280;20944;47.048;15.390;2024-01-27T02:21:31;98422.38;;;7.73;43.97
12759;BME280;20944;47.048;15.390;2024-01-27T02:24:00;98426.72;;;7.70;43.73
12759;BME280;20944;47.048;15.390;2024-01-27T02:26:29;98427.59;;;7.66;43.63
12759;BME280;20944;47.048;15.390;2024-01-27T02:28:58;98434.50;;;7.73;43.23
12759;BME280;20944;47.048;15.390;2024-01-27T02:31:26;98401.53;;;7.63;43.45
12759;BME280;20944;47.048;15.390;2024-01-27T02:33:54;98423.22;;;7.72;43.25
12759;BME280;20944;47.048;15.390;2024-01-27T02:36:22;98430.22;;;7.64;43.70
12759;BME280;20944;47.048;15.390;2024-01-27T02:38:51;98425.00;;;7.67;43.38
12759;BME280;20944;47.048;15.390;2024-01-27T02:41:19;98428.44;;;7.66;43.66
12759;BME280;20944;47.048;15.390;2024-01-27T02:43:49;98436.31;;;7.58;43.89
12759;BME280;20944;47.048;15.390;2024-01-27T02:46:17;98412.03;;;7.35;44.00
12759;BME280;20944;47.048;15.390;2024-01-27T02:48:45;98441.56;;;7.49;44.13
12759;BME280;20944;47.048;15.390;2024-01-27T02:51:19;98452.84;;;7.51;43.63
12759;BME280;20944;47.048;15.390;2024-01-27T02:53:47;98435.44;;;7.63;43.51
12759;BME280;20944;47.048;15.390;2024-01-27T02:56:16;98432.00;;;7.54;43.37
12759;BME280;20944;47.048;15.390;2024-01-27T02:58:44;98417.25;;;7.43;44.79
12759;BME280;20944;47.048;15.390;2024-01-27T03:01:15;98427.69;;;7.37;44.07
12759;BME280;20944;47.048;15.390;2024-01-27T03:03:43;98437.25;;;7.36;44.01
12759;BME280;20944;47.048;15.390;2024-01-27T03:06:13;98440.72;;;7.37;43.83
12759;BME280;20944;47.048;15.390;2024-01-27T03:08:42;98440.69;;;7.41;43.68
12759;BME280;20944;47.048;15.390;2024-01-27T03:11:10;98438.13;;;7.32;44.31
12759;BME280;20944;47.048;15.390;2024-01-27T03:13:38;98444.22;;;7.19;44.16
12759;BME280;20944;47.048;15.390;2024-01-27T03:16:11;98454.63;;;7.31;43.53
12759;BME280;20944;47.048;15.390;2024-01-27T03:18:41;98455.50;;;7.24;44.36
12759;BME280;20944;47.048;15.390;2024-01-27T03:21:09;98394.75;;;6.79;45.57
12759;BME280;20944;47.048;15.390;2024-01-27T03:23:38;98453.78;;;6.97;46.09
12759;BME280;20944;47.048;15.390;2024-01-27T03:26:06;98452.06;;;6.79;45.63
12759;BME280;20944;47.048;15.390;2024-01-27T03:28:34;98445.09;;;6.70;45.07
12759;BME280;20944;47.048;15.390;2024-01-27T03:31:02;98465.91;;;6.66;45.86
12759;BME280;20944;47.048;15.390;2024-01-27T03:33:31;98474.56;;;6.45;46.87
12759;BME280;20944;47.048;15.390;2024-01-27T03:36:00;98476.31;;;6.47;46.86
12759;BME280;20944;47.048;15.390;2024-01-27T03:38:29;98484.09;;;6.38;46.22
12759;BME280;20944;47.048;15.390;2024-01-27T03:40:58;98486.69;;;6.31;47.34
12759;BME280;20944;47.048;15.390;2024-01-27T03:43:26;98468.44;;;6.23;46.15
12759;BME280;20944;47.048;15.390;2024-01-27T03:45:54;98467.59;;;6.29;46.58
12759;BME280;20944;47.048;15.390;2024-01-27T03:48:23;98488.41;;;6.22;46.66
12759;BME280;20944;47.048;15.390;2024-01-27T03:50:51;98494.44;;;6.17;48.74
12759;BME280;20944;47.048;15.390;2024-01-27T03:53:21;98456.19;;;5.91;49.36
12759;BME280;20944;47.048;15.390;2024-01-27T03:55:49;98487.47;;;6.13;47.38
12759;BME280;20944;47.048;15.390;2024-01-27T03:58:17;98465.00;;;6.29;45.60
12759;BME280;20944;47.048;15.390;2024-01-27T04:00:45;98487.63;;;6.72;44.81
12759;BME280;20944;47.048;15.390;2024-01-27T04:03:14;98479.84;;;6.94;44.40
12759;BME280;20944;47.048;15.390;2024-01-27T04:05:42;98475.47;;;7.16;44.02
12759;BME280;20944;47.048;15.390;2024-01-27T04:08:10;98484.19;;;7.25;44.51
12759;BME280;20944;47.048;15.390;2024-01-27T04:10:40;98466.78;;;7.40;43.79
12759;BME280;20944;47.048;15.390;2024-01-27T04:13:08;98478.03;;;7.54;43.44
12759;BME280;20944;47.048;15.390;2024-01-27T04:15:36;98494.50;;;7.83;42.74
12759;BME280;20944;47.048;15.390;2024-01-27T04:18:07;98425.84;;;7.71;43.01
12759;BME280;20944;47.048;15.390;2024-01-27T04:20:36;98467.53;;;7.89;43.04
12759;BME280;20944;47.048;15.390;2024-01-27T04:23:04;98491.00;;;7.94;42.87
12759;BME280;20944;47.048;15.390;2024-01-27T04:25:33;98489.25;;;7.90;43.13
12759;BME280;20944;47.048;15.390;2024-01-27T04:28:03;98496.16;;;8.04;42.68
12759;BME280;20944;47.048;15.390;2024-01-27T04:30:31;98497.94;;;8.01;42.87
12759;BME280;20944;47.048;15.390;2024-01-27T04:32:59;98502.25;;;8.02;42.43
12759;BME280;20944;47.048;15.390;2024-01-27T04:35:28;98503.13;;;8.08;42.47
12759;BME280;20944;47.048;15.390;2024-01-27T04:37:56;98508.31;;;8.10;42.71
12759;BME280;20944;47.048;15.390;2024-01-27T04:40:24;98488.31;;;8.04;42.34
12759;BME280;20944;47.048;15.390;2024-01-27T04:42:53;98496.13;;;8.14;42.09
12759;BME280;20944;47.048;15.390;2024-01-27T04:45:22;98517.91;;;8.17;42.11
12759;BME280;20944;47.048;15.390;2024-01-27T04:47:51;98504.81;;;8.16;42.59
12759;BME280;20944;47.048;15.390;2024-01-27T04:50:20;98491.78;;;8.13;42.13
12759;BME280;20944;47.048;15.390;2024-01-27T04:52:48;98528.28;;;8.31;42.32
12759;BME280;20944;47.048;15.390;2024-01-27T04:55:17;98504.84;;;8.14;41.79
12759;BME280;20944;47.048;15.390;2024-01-27T04:57:45;98537.84;;;8.23;42.26
12759;BME280;20944;47.048;15.390;2024-01-27T05:00:14;98555.28;;;8.19;42.69
12759;BME280;20944;47.048;15.390;2024-01-27T05:02:45;98550.13;;;7.99;43.18
12759;BME280;20944;47.048;15.390;2024-01-27T05:05:13;98522.31;;;7.88;43.33
12759;BME280;20944;47.048;15.390;2024-01-27T05:07:41;98540.59;;;7.84;43.89
12759;BME280;20944;47.048;15.390;2024-01-27T05:10:10;98557.97;;;7.93;42.70
12759;BME280;20944;47.048;15.390;2024-01-27T05:12:39;98544.06;;;7.85;43.48
12759;BME280;20944;47.048;15.390;2024-01-27T05:15:08;98562.34;;;7.82;43.04
12759;BME280;20944;47.048;15.390;2024-01-27T05:17:37;98562.34;;;7.79;43.18
12759;BME280;20944;47.048;15.390;2024-01-27T05:20:08;98571.91;;;7.80;42.95
12759;BME280;20944;47.048;15.390;2024-01-27T05:22:36;98555.38;;;7.84;42.66
12759;BME280;20944;47.048;15.390;2024-01-27T05:25:05;98580.63;;;7.80;43.55
12759;BME280;20944;47.048;15.390;2024-01-27T05:27:34;98576.28;;;7.75;44.13
12759;BME280;20944;47.048;15.390;2024-01-27T05:30:02;98584.97;;;7.63;44.71
12759;BME280;20944;47.048;15.390;2024-01-27T05:32:31;98564.97;;;7.47;45.33
12759;BME280;20944;47.048;15.390;2024-01-27T05:34:59;98598.88;;;7.47;44.40
12759;BME280;20944;47.048;15.390;2024-01-27T05:37:29;98617.13;;;7.44;43.85
12759;BME280;20944;47.048;15.390;2024-01-27T05:39:57;98612.81;;;7.67;43.11
12759;BME280;20944;47.048;15.390;2024-01-27T05:42:25;98609.31;;;7.76;43.71
12759;BME280;20944;47.048;15.390;2024-01-27T05:44:54;98553.69;;;7.31;43.50
12759;BME280;20944;47.048;15.390;2024-01-27T05:47:22;98629.31;;;7.57;44.13
12759;BME280;20944;47.048;15.390;2024-01-27T05:49:50;98616.28;;;7.57;42.53
12759;BME280;20944;47.048;15.390;2024-01-27T05:52:19;98625.84;;;7.63;43.57
12759;BME280;20944;47.048;15.390;2024-01-27T05:54:52;98608.44;;;7.54;44.79
12759;BME280;20944;47.048;15.390;2024-01-27T05:57:21;98620.59;;;7.41;45.11
12759;BME280;20944;47.048;15.390;2024-01-27T05:59:49;98596.28;;;7.24;45.76
12759;BME280;20944;47.048;15.390;2024-01-27T06:02:17;98626.69;;;7.23;45.84
12759;BME280;20944;47.048;15.390;2024-01-27T06:04:46;98617.13;;;7.30;44.50
12759;BME280;20944;47.048;15.390;2024-01-27T06:07:14;98609.31;;;7.25;44.67
12759;BME280;20944;47.048;15.390;2024-01-27T06:09:42;98618.88;;;7.23;45.30
12759;BME280;20944;47.048;15.390;2024-01-27T06:12:12;98627.53;;;7.28;44.69
12759;BME280;20944;47.048;15.390;2024-01-27T06:14:41;98629.25;;;7.13;45.58
12759;BME280;20944;47.048;15.390;2024-01-27T06:17:09;98634.50;;;7.28;44.48
12759;BME280;20944;47.048;15.390;2024-01-27T06:19:37;98638.84;;;7.24;45.34
12759;BME280;20944;47.048;15.390;2024-01-27T06:22:06;98651.88;;;7.26;45.41
12759;BME280;20944;47.048;15.390;2024-01-27T06:24:34;98648.38;;;7.19;45.02
12759;BME280;20944;47.048;15.390;2024-01-27T06:27:03;98654.44;;;7.06;45.68
12759;BME280;20944;47.048;15.390;2024-01-27T06:29:32;98643.13;;;6.99;44.91
12759;BME280;20944;47.048;15.390;2024-01-27T06:32:00;98647.50;;;7.05;44.53
12759;BME280;20944;47.048;15.390;2024-01-27T06:34:29;98661.41;;;7.18;44.23
12759;BME280;20944;47.048;15.390;2024-01-27T06:36:57;98651.81;;;7.09;44.41
12759;BME280;20944;47.048;15.390;2024-01-27T06:39:25;98664.84;;;7.08;44.73
12759;BME280;20944;47.048;15.390;2024-01-27T06:41:54;98661.38;;;7.09;45.42
12759;BME280;20944;47.048;15.390;2024-01-27T06:44:22;98651.81;;;6.98;46.02
12759;BME280;20944;47.048;15.390;2024-01-27T06:46:52;98651.78;;;6.94;45.57
12759;BME280;20944;47.048;15.390;2024-01-27T06:49:20;98668.34;;;7.14;44.50
12759;BME280;20944;47.048;15.390;2024-01-27T06:51:48;98664.03;;;7.19;44.53
12759;BME280;20944;47.048;15.390;2024-01-27T06:54:16;98670.13;;;7.23;44.71
12759;BME280;20944;47.048;15.390;2024-01-27T06:56:45;98673.59;;;7.28;44.16
12759;BME280;20944;47.048;15.390;2024-01-27T06:59:13;98680.53;;;7.26;46.11
12759;BME280;20944;47.048;15.390;2024-01-27T07:01:45;98685.75;;;7.18;45.20
12759;BME280;20944;47.048;15.390;2024-01-27T07:04:16;98703.16;;;7.30;46.34
12759;BME280;20944;47.048;15.390;2024-01-27T07:06:45;98705.75;;;7.24;46.93
12759;BME280;20944;47.048;15.390;2024-01-27T07:09:13;98703.09;;;7.15;45.98
12759;BME280;20944;47.048;15.390;2024-01-27T07:11:42;98688.25;;;6.97;46.80
12759;BME280;20944;47.048;15.390;2024-01-27T07:14:10;98696.94;;;6.96;47.22
12759;BME280;20944;47.048;15.390;2024-01-27T07:16:38;98710.84;;;6.92;47.74
12759;BME280;20944;47.048;15.390;2024-01-27T07:19:06;98681.28;;;6.91;47.02
12759;BME280;20944;47.048;15.390;2024-01-27T07:21:36;98707.41;;;6.99;46.96
12759;BME280;20944;47.048;15.390;2024-01-27T07:24:05;98654.28;;;6.65;47.91
12759;BME280;20944;47.048;15.390;2024-01-27T07:26:33;98704.78;;;6.99;47.76
12759;BME280;20944;47.048;15.390;2024-01-27T07:29:02;98715.25;;;7.13;47.69
12759;BME280;20944;47.048;15.390;2024-01-27T07:31:30;98701.38;;;7.12;47.22
12759;BME280;20944;47.048;15.390;2024-01-27T07:33:58;98716.19;;;7.32;47.77
12759;BME280;20944;47.048;15.390;2024-01-27T07:36:26;98716.22;;;7.39;46.60
12759;BME280;20944;47.048;15.390;2024-01-27T07:39:00;98707.53;;;7.37;46.19
12759;BME280;20944;47.048;15.390;2024-01-27T07:41:29;98723.16;;;7.40;47.08
12759;BME280;20944;47.048;15.390;2024-01-27T07:44:06;98717.94;;;7.48;48.61
12759;BME280;20944;47.048;15.390;2024-01-27T07:46:35;98717.13;;;7.58;46.98
12759;BME280;20944;47.048;15.390;2024-01-27T07:49:03;98720.59;;;7.63;47.48
12759;BME280;20944;47.048;15.390;2024-01-27T07:51:32;98742.31;;;7.59;47.31
12759;BME280;20944;47.048;15.390;2024-01-27T07:54:02;98750.13;;;7.51;46.98
12759;BME280;20944;47.048;15.390;2024-01-27T07:56:30;98756.25;;;7.58;47.80
12759;BME280;20944;47.048;15.390;2024-01-27T07:58:58;98763.22;;;7.65;46.99
12759;BME280;20944;47.048;15.390;2024-01-27T08:01:27;98763.22;;;7.71;47.31
12759;BME280;20944;47.048;15.390;2024-01-27T08:03:55;98741.50;;;7.74;46.47
12759;BME280;20944;47.048;15.390;2024-01-27T08:06:28;98759.75;;;7.84;45.59
12759;BME280;20944;47.048;15.390;2024-01-27T08:08:57;98776.31;;;8.00;45.77
12759;BME280;20944;47.048;15.390;2024-01-27T08:11:27;98764.16;;;8.11;45.81
12759;BME280;20944;47.048;15.390;2024-01-27T08:14:00;98738.03;;;8.10;45.60
12759;BME280;20944;47.048;15.390;2024-01-27T08:16:28;98772.84;;;8.35;45.10
12759;BME280;20944;47.048;15.390;2024-01-27T08:18:56;98768.50;;;8.46;44.58
12759;BME280;20944;47.048;15.390;2024-01-27T08:21:25;98754.56;;;8.58;43.79
12759;BME280;20944;47.048;15.390;2024-01-27T08:23:53;98758.03;;;8.71;43.74
12759;BME280;20944;47.048;15.390;2024-01-27T08:26:22;98764.13;;;8.77;44.06
12759;BME280;20944;47.048;15.390;2024-01-27T08:28:51;98786.75;;;8.80;44.38
12759;BME280;20944;47.048;15.390;2024-01-27T08:31:21;98779.78;;;8.82;45.97
12759;BME280;20944;47.048;15.390;2024-01-27T08:33:49;98791.09;;;8.84;45.03
12759;BME280;20944;47.048;15.390;2024-01-27T08:36:18;98786.72;;;8.86;44.68
12759;BME280;20944;47.048;15.390;2024-01-27T08:38:46;98796.31;;;8.90;45.40
12759;BME280;20944;47.048;15.390;2024-01-27T08:41:14;98805.91;;;8.94;44.91
12759;BME280;20944;47.048;15.390;2024-01-27T08:43:42;98808.50;;;9.02;44.81
12759;BME280;20944;47.048;15.390;2024-01-27T08:46:12;98804.97;;;9.09;44.52
12759;BME280;20944;47.048;15.390;2024-01-27T08:48:42;98717.09;;;8.70;44.35
12759;BME280;20944;47.048;15.390;2024-01-27T08:51:10;98817.13;;;9.28;43.59
12759;BME280;20944;47.048;15.390;2024-01-27T08:53:39;98819.69;;;9.40;43.89
12759;BME280;20944;47.048;15.390;2024-01-27T08:56:07;98805.69;;;9.52;44.36
12759;BME280;20944;47.048;15.390;2024-01-27T08:58:36;98817.91;;;9.56;43.81
12759;BME280;20944;47.048;15.390;2024-01-27T09:01:05;98803.03;;;9.61;42.87
12759;BME280;20944;47.048;15.390;2024-01-27T09:03:37;98786.50;;;9.56;43.59
12759;BME280;20944;47.048;15.390;2024-01-27T09:06:06;98807.34;;;9.71;43.47
12759;BME280;20944;47.048;15.390;2024-01-27T09:08:36;98808.22;;;9.75;43.41
12759;BME280;20944;47.048;15.390;2024-01-27T09:11:04;98818.66;;;9.78;40.06
12759;BME280;20944;47.048;15.390;2024-01-27T09:13:33;98801.22;;;9.72;39.35
12759;BME280;20944;47.048;15.390;2024-01-27T09:16:01;98811.66;;;9.79;39.83
12759;BME280;20944;47.048;15.390;2024-01-27T09:18:30;98819.47;;;9.86;41.51
12759;BME280;20944;47.048;15.390;2024-01-27T09:21:00;98785.50;;;9.79;40.43
12759;BME280;20944;47.048;15.390;2024-01-27T09:23:28;98828.09;;;10.08;39.00
12759;BME280;20944;47.048;15.390;2024-01-27T09:25:56;98827.25;;;10.02;39.01
12759;BME280;20944;47.048;15.390;2024-01-27T09:28:25;98827.22;;;10.03;40.69
12759;BME280;20944;47.048;15.390;2024-01-27T09:30:53;98823.75;;;10.06;39.55
12759;BME280;20944;47.048;15.390;2024-01-27T09:33:22;98833.28;;;10.11;37.94
12759;BME280;20944;47.048;15.390;2024-01-27T09:35:51;98814.09;;;10.09;37.81
12759;BME280;20944;47.048;15.390;2024-01-27T09:38:20;98827.09;;;10.27;37.15
12759;BME280;20944;47.048;15.390;2024-01-27T09:40:49;98831.44;;;10.32;36.56
12759;BME280;20944;47.048;15.390;2024-01-27T09:43:18;98836.59;;;10.45;36.44
12759;BME280;20944;47.048;15.390;2024-01-27T09:45:46;98842.59;;;10.58;36.81
12759;BME280;20944;47.048;15.390;2024-01-27T09:48:14;98834.63;;;10.72;36.20
12759;BME280;20944;47.048;15.390;2024-01-27T09:50:45;98830.19;;;10.77;34.88
12759;BME280;20944;47.048;15.390;2024-01-27T09:53:15;98778.00;;;10.49;34.86
12759;BME280;20944;47.048;15.390;2024-01-27T09:55:45;98836.16;;;10.93;36.21
12759;BME280;20944;47.048;15.390;2024-01-27T09:58:13;98836.97;;;10.99;36.74
12759;BME280;20944;47.048;15.390;2024-01-27T10:00:42;98825.53;;;11.05;36.18
12759;BME280;20944;47.048;15.390;2024-01-27T10:03:10;98821.97;;;11.12;35.30
12759;BME280;20944;47.048;15.390;2024-01-27T10:05:41;98817.56;;;11.16;34.39
12759;BME280;20944;47.048;15.390;2024-01-27T10:08:10;98789.66;;;11.08;33.34
12759;BME280;20944;47.048;15.390;2024-01-27T10:10:39;98812.16;;;11.29;33.42
12759;BME280;20944;47.048;15.390;2024-01-27T10:13:10;98820.91;;;11.31;33.70
12759;BME280;20944;47.048;15.390;2024-01-27T10:15:41;98832.28;;;11.32;33.53
12759;BME280;20944;47.048;15.390;2024-01-27T10:18:09;98833.13;;;11.34;34.29
12759;BME280;20944;47.048;15.390;2024-01-27T10:20:40;98836.56;;;11.38;34.62
12759;BME280;20944;47.048;15.390;2024-01-27T10:23:12;98832.34;;;11.26;33.31
12759;BME280;20944;47.048;15.390;2024-01-27T10:25:41;98674.31;;;10.27;33.11
12759;BME280;20944;47.048;15.390;2024-01-27T10:28:11;98849.94;;;11.15;32.14
12759;BME280;20944;47.048;15.390;2024-01-27T10:30:39;98833.38;;;11.10;32.16
12759;BME280;20944;47.048;15.390;2024-01-27T10:33:08;98823.81;;;11.04;30.08
12759;BME280;20944;47.048;15.390;2024-01-27T10:35:37;98835.81;;;11.25;31.49
12759;BME280;20944;47.048;15.390;2024-01-27T10:38:06;98847.94;;;11.37;31.28
12759;BME280;20944;47.048;15.390;2024-01-27T10:40:35;98831.31;;;11.36;32.23
12759;BME280;20944;47.048;15.390;2024-01-27T10:43:05;98847.16;;;11.31;34.00
12759;BME280;20944;47.048;15.390;2024-01-27T10:45:36;98840.16;;;11.29;35.09
12759;BME280;20944;47.048;15.390;2024-01-27T10:48:06;98825.31;;;11.28;37.83
12759;BME280;20944;47.048;15.390;2024-01-27T10:50:36;98817.34;;;11.35;34.34
12759;BME280;20944;47.048;15.390;2024-01-27T10:53:21;98810.47;;;11.25;30.92
12759;BME280;20944;47.048;15.390;2024-01-27T10:55:51;98823.72;;;11.13;29.00
12759;BME280;20944;47.048;15.390;2024-01-27T10:58:23;98822.19;;;10.94;29.13
12759;BME280;20944;47.048;15.390;2024-01-27T11:00:53;98809.94;;;10.93;28.31
12759;BME280;20944;47.048;15.390;2024-01-27T11:03:23;98823.78;;;11.08;30.23
12759;BME280;20944;47.048;15.390;2024-01-27T11:05:53;98824.53;;;11.20;30.37
12759;BME280;20944;47.048;15.390;2024-01-27T11:08:24;98824.47;;;11.26;30.34
12759;BME280;20944;47.048;15.390;2024-01-27T11:10:55;98820.06;;;11.28;29.57
12759;BME280;20944;47.048;15.390;2024-01-27T11:13:25;98805.22;;;11.25;29.07
12759;BME280;20944;47.048;15.390;2024-01-27T11:15:55;98848.03;;;11.29;27.50
12759;BME280;20944;47.048;15.390;2024-01-27T11:18:25;98834.06;;;11.27;27.88
12759;BME280;20944;47.048;15.390;2024-01-27T11:20:54;98816.59;;;11.24;28.58
12759;BME280;20944;47.048;15.390;2024-01-27T11:23:32;98811.94;;;11.51;27.66
12759;BME280;20944;47.048;15.390;2024-01-27T11:26:04;98823.19;;;11.59;28.39
12759;BME280;20944;47.048;15.390;2024-01-27T11:28:32;98840.66;;;11.60;28.07
12759;BME280;20944;47.048;15.390;2024-01-27T11:31:07;98673.03;;;10.65;27.24
12759;BME280;20944;47.048;15.390;2024-01-27T11:33:41;98838.09;;;11.57;27.03
12759;BME280;20944;47.048;15.390;2024-01-27T11:36:18;98832.91;;;11.52;27.12
12759;BME280;20944;47.048;15.390;2024-01-27T11:38:48;98831.00;;;11.64;27.58
12759;BME280;20944;47.048;15.390;2024-01-27T11:41:26;98830.06;;;11.69;27.46
12759;BME280;20944;47.048;15.390;2024-01-27T11:43:56;98845.72;;;11.77;27.21
12759;BME280;20944;47.048;15.390;2024-01-27T11:46:26;98846.69;;;11.68;26.71
12759;BME280;20944;47.048;15.390;2024-01-27T11:48:54;98855.53;;;11.61;27.01
12759;BME280;20944;47.048;15.390;2024-01-27T11:51:24;98867.56;;;11.79;27.58
12759;BME280;20944;47.048;15.390;2024-01-27T11:53:53;98849.13;;;11.85;27.04
12759;BME280;20944;47.048;15.390;2024-01-27T11:56:21;98828.19;;;11.82;26.13
12759;BME280;20944;47.048;15.390;2024-01-27T11:58:50;98849.22;;;11.77;25.77
12759;BME280;20944;47.048;15.390;2024-01-27T12:01:18;98841.34;;;11.77;26.23
12759;BME280;20944;47.048;15.390;2024-01-27T12:03:48;98836.91;;;11.79;26.59
12759;BME280;20944;47.048;15.390;2024-01-27T12:06:17;98835.31;;;11.69;26.11
12759;BME280;20944;47.048;15.390;2024-01-27T12:08:46;98830.88;;;11.73;26.33
12759;BME280;20944;47.048;15.390;2024-01-27T12:11:16;98840.34;;;11.87;26.12
12759;BME280;20944;47.048;15.390;2024-01-27T12:13:50;98821.09;;;11.88;26.34
12759;BME280;20944;47.048;15.390;2024-01-27T12:16:20;98834.06;;;12.01;26.42
12759;BME280;20944;47.048;15.390;2024-01-27T12:18:53;98835.66;;;12.09;26.44
12759;BME280;20944;47.048;15.390;2024-01-27T12:21:22;98837.28;;;12.20;25.84
12759;BME280;20944;47.048;15.390;2024-01-27T12:23:52;98755.69;;;11.67;25.72
12759;BME280;20944;47.048;15.390;2024-01-27T12:26:21;98846.28;;;12.02;25.28
12759;BME280;20944;47.048;15.390;2024-01-27T12:28:50;98835.84;;;11.97;25.25
12759;BME280;20944;47.048;15.390;2024-01-27T12:31:18;98847.94;;;12.09;26.04
12759;BME280;20944;47.048;15.390;2024-01-27T12:33:50;98839.09;;;12.14;26.04
12759;BME280;20944;47.048;15.390;2024-01-27T12:36:21;98839.69;;;12.33;25.58
12759;BME280;20944;47.048;15.390;2024-01-27T12:38:53;98834.31;;;12.41;25.41
12759;BME280;20944;47.048;15.390;2024-01-27T12:41:22;98841.28;;;12.43;25.09
12759;BME280;20944;47.048;15.390;2024-01-27T12:43:51;98712.00;;;11.63;25.09
12759;BME280;20944;47.048;15.390;2024-01-27T12:46:19;98835.75;;;12.60;25.38
12759;BME280;20944;47.048;15.390;2024-01-27T12:48:47;98832.75;;;12.83;25.80
12759;BME280;20944;47.048;15.390;2024-01-27T12:51:16;98851.59;;;13.08;25.25
12759;BME280;20944;47.048;15.390;2024-01-27T12:53:46;98841.19;;;13.01;24.96
12759;BME280;20944;47.048;15.390;2024-01-27T12:56:15;98837.25;;;13.26;25.41
12759;BME280;20944;47.048;15.390;2024-01-27T12:58:43;98849.06;;;13.52;25.84
12759;BME280;20944;47.048;15.390;2024-01-27T13:01:12;98837.63;;;13.51;24.61
12759;BME280;20944;47.048;15.390;2024-01-27T13:03:41;98833.59;;;13.78;24.76
12759;BME280;20944;47.048;15.390;2024-01-27T13:06:11;98832.56;;;13.85;24.31